createdAt,value
2018-12-16T00:01:41.347Z,12.03
2018-12-16T00:04:09.503Z,11.13
2018-12-16T00:06:37.673Z,10.78
2018-12-16T00:09:06.826Z,11.47
2018-12-16T00:11:35.028Z,11.97
2018-12-16T00:14:03.579Z,11.30
2018-12-16T00:16:31.709Z,12.10
2018-12-16T00:18:59.962Z,11.35
2018-12-16T00:21:28.097Z,11.33
2018-12-16T00:23:56.257Z,11.90
2018-12-16T00:29:18.079Z,11.33
2018-12-16T00:31:46.412Z,11.93
2018-12-16T00:34:14.589Z,11.17
2018-12-16T00:36:42.736Z,11.80
2018-12-16T00:39:10.869Z,11.70
2018-12-16T00:41:39.073Z,11.43
2018-12-16T00:44:07.208Z,10.27
2018-12-16T00:46:35.326Z,11.00
2018-12-16T00:49:03.473Z,11.50
2018-12-16T00:51:31.618Z,11.33
2018-12-16T00:53:59.769Z,11.15
2018-12-16T00:56:27.922Z,11.93
2018-12-16T00:58:56.118Z,10.87
2018-12-16T01:01:24.379Z,10.37
2018-12-16T01:03:52.501Z,10.00
2018-12-16T01:06:20.817Z,11.77
2018-12-16T01:08:48.924Z,11.47
2018-12-16T01:11:17.183Z,11.48
2018-12-16T01:13:45.310Z,11.53
2018-12-16T01:16:13.568Z,11.50
2018-12-16T01:18:41.724Z,11.73
2018-12-16T01:21:09.884Z,12.43
2018-12-16T01:23:38.043Z,11.77
2018-12-16T01:26:06.181Z,12.93
2018-12-16T01:28:34.324Z,12.03
2018-12-16T01:31:02.442Z,12.13
2018-12-16T01:33:30.966Z,11.93
2018-12-16T01:35:59.136Z,12.35
2018-12-16T01:38:27.288Z,12.18
2018-12-16T01:40:55.438Z,12.33
2018-12-16T01:43:23.573Z,14.17
2018-12-16T01:45:51.680Z,12.57
2018-12-16T01:48:19.819Z,12.57
2018-12-16T01:50:47.975Z,12.60
2018-12-16T01:53:16.127Z,12.63
2018-12-16T01:55:44.250Z,12.37
2018-12-16T01:58:12.397Z,12.37
2018-12-16T02:00:40.602Z,13.13
2018-12-16T02:03:08.705Z,13.00
2018-12-16T02:05:36.898Z,11.60
2018-12-16T02:08:05.036Z,12.30
2018-12-16T02:10:33.198Z,13.10
2018-12-16T02:13:01.328Z,12.67
2018-12-16T02:15:29.653Z,13.00
2018-12-16T02:17:57.759Z,12.03
2018-12-16T02:20:25.950Z,12.70
2018-12-16T02:22:56.995Z,12.80
2018-12-16T02:25:24.288Z,12.27
2018-12-16T02:27:52.445Z,12.93
2018-12-16T02:30:26.178Z,13.47
2018-12-16T02:32:54.325Z,12.98
2018-12-16T02:35:22.505Z,12.17
2018-12-16T02:37:50.634Z,12.87
2018-12-16T02:40:18.879Z,12.15
2018-12-16T02:42:47.134Z,12.47
2018-12-16T02:45:15.480Z,13.70
2018-12-16T02:47:47.924Z,13.57
2018-12-16T02:50:16.175Z,13.22
2018-12-16T02:52:44.521Z,13.90
2018-12-16T02:55:12.723Z,12.90
2018-12-16T02:57:40.891Z,12.53
2018-12-16T03:00:09.548Z,13.20
2018-12-16T03:02:37.705Z,13.67
2018-12-16T03:05:06.044Z,13.28
2018-12-16T03:07:34.208Z,12.87
2018-12-16T03:10:02.370Z,12.43
2018-12-16T03:12:30.484Z,13.37
2018-12-16T03:14:58.616Z,13.13
2018-12-16T03:17:26.791Z,13.83
2018-12-16T03:19:55.023Z,13.77
2018-12-16T03:22:23.165Z,13.88
2018-12-16T03:24:51.301Z,13.33
2018-12-16T03:27:19.415Z,12.73
2018-12-16T03:29:47.545Z,13.03
2018-12-16T03:32:15.692Z,14.00
2018-12-16T03:34:43.964Z,13.67
2018-12-16T03:37:12.133Z,13.90
2018-12-16T03:39:40.276Z,13.87
2018-12-16T03:42:08.396Z,14.03
2018-12-16T03:44:36.544Z,13.20
2018-12-16T03:47:04.703Z,13.30
2018-12-16T03:49:32.855Z,14.10
2018-12-16T03:52:01.054Z,13.30
2018-12-16T03:54:29.224Z,14.20
2018-12-16T03:56:57.350Z,14.07
2018-12-16T03:59:25.503Z,14.13
2018-12-16T04:01:57.454Z,13.97
2018-12-16T04:04:26.495Z,13.50
2018-12-16T04:06:54.685Z,14.68
2018-12-16T04:09:22.803Z,14.07
2018-12-16T04:11:50.959Z,14.07
2018-12-16T04:14:19.104Z,14.67
2018-12-16T04:16:47.261Z,13.35
2018-12-16T04:19:15.451Z,14.00
2018-12-16T04:21:43.567Z,13.65
2018-12-16T04:24:11.692Z,14.30
2018-12-16T04:26:39.869Z,14.93
2018-12-16T04:29:08.021Z,14.15
2018-12-16T04:31:36.161Z,14.73
2018-12-16T04:34:04.380Z,14.30
2018-12-16T04:36:32.526Z,14.57
2018-12-16T04:39:00.669Z,15.00
2018-12-16T04:41:28.784Z,15.63
2018-12-16T04:43:56.920Z,15.15
2018-12-16T04:46:25.088Z,15.48
2018-12-16T04:48:53.225Z,16.07
2018-12-16T04:51:21.389Z,15.50
2018-12-16T04:53:49.511Z,14.03
2018-12-16T04:56:17.655Z,16.30
2018-12-16T04:58:45.775Z,16.52
2018-12-16T05:01:13.905Z,16.63
2018-12-16T05:03:42.062Z,17.33
2018-12-16T05:06:10.227Z,17.40
2018-12-16T05:08:38.355Z,15.47
2018-12-16T05:11:06.504Z,16.50
2018-12-16T05:13:34.672Z,17.07
2018-12-16T05:16:02.809Z,15.57
2018-12-16T05:18:30.929Z,16.37
2018-12-16T05:20:59.086Z,16.60
2018-12-16T05:23:27.187Z,16.27
2018-12-16T05:25:55.320Z,15.60
2018-12-16T05:28:23.530Z,17.07
2018-12-16T05:30:51.641Z,15.90
2018-12-16T05:33:19.787Z,16.00
2018-12-16T05:35:47.906Z,16.27
2018-12-16T05:38:16.053Z,15.87
2018-12-16T05:40:44.202Z,16.03
2018-12-16T05:43:12.340Z,16.73
2018-12-16T05:45:40.456Z,15.35
2018-12-16T05:48:08.580Z,16.30
2018-12-16T05:50:36.704Z,15.47
2018-12-16T05:53:04.945Z,15.47
2018-12-16T05:55:33.074Z,15.67
2018-12-16T05:58:01.187Z,26.90
2018-12-16T06:00:29.357Z,19.43
2018-12-16T06:02:57.475Z,15.03
2018-12-16T06:05:25.598Z,15.37
2018-12-16T06:07:53.758Z,15.73
2018-12-16T06:10:21.889Z,15.35
2018-12-16T06:12:50.049Z,15.50
2018-12-16T06:15:18.169Z,14.60
2018-12-16T06:17:46.340Z,15.15
2018-12-16T06:20:14.550Z,16.17
2018-12-16T06:22:42.686Z,16.80
2018-12-16T06:25:10.917Z,14.27
2018-12-16T06:27:39.037Z,15.43
2018-12-16T06:30:07.839Z,16.77
2018-12-16T06:32:35.965Z,16.47
2018-12-16T06:35:04.292Z,15.53
2018-12-16T06:37:32.435Z,15.73
2018-12-16T06:40:00.587Z,15.90
2018-12-16T06:42:28.744Z,16.65
2018-12-16T06:44:56.871Z,15.23
2018-12-16T06:47:25.028Z,16.80
2018-12-16T06:49:53.200Z,16.70
2018-12-16T06:52:21.325Z,16.13
2018-12-16T06:54:49.465Z,15.40
2018-12-16T06:57:17.625Z,15.50
2018-12-16T06:59:45.771Z,16.90
2018-12-16T07:02:13.910Z,18.87
2018-12-16T07:04:42.057Z,15.93
2018-12-16T07:07:10.224Z,15.78
2018-12-16T07:09:38.384Z,16.67
2018-12-16T07:12:06.504Z,17.50
2018-12-16T07:14:34.788Z,14.93
2018-12-16T07:17:03.528Z,16.23
2018-12-16T07:19:31.654Z,16.37
2018-12-16T07:21:59.825Z,15.03
2018-12-16T07:24:27.993Z,16.07
2018-12-16T07:26:56.224Z,16.17
2018-12-16T07:29:24.436Z,17.77
2018-12-16T07:31:52.724Z,16.40
2018-12-16T07:34:20.904Z,16.77
2018-12-16T07:36:49.170Z,15.87
2018-12-16T07:39:17.315Z,15.80
2018-12-16T07:41:45.466Z,15.77
2018-12-16T07:44:13.785Z,16.00
2018-12-16T07:46:41.931Z,16.30
2018-12-16T07:49:10.193Z,16.83
2018-12-16T07:51:38.330Z,16.83
2018-12-16T07:54:06.586Z,16.93
2018-12-16T07:56:34.798Z,16.73
2018-12-16T07:59:02.956Z,16.33
2018-12-16T08:01:31.250Z,19.20
2018-12-16T08:03:59.383Z,17.97
2018-12-16T08:06:27.538Z,17.53
2018-12-16T08:08:55.710Z,17.63
2018-12-16T08:11:23.883Z,17.50
2018-12-16T08:13:52.052Z,18.33
2018-12-16T08:16:20.179Z,17.63
2018-12-16T08:18:48.438Z,18.03
2018-12-16T08:21:16.582Z,17.83
2018-12-16T08:23:44.718Z,17.77
2018-12-16T08:26:13.014Z,17.93
2018-12-16T08:28:41.171Z,16.93
2018-12-16T08:31:09.474Z,18.05
2018-12-16T08:33:37.653Z,18.70
2018-12-16T08:36:05.862Z,18.73
2018-12-16T08:38:34.037Z,18.90
2018-12-16T08:41:02.192Z,17.65
2018-12-16T08:43:30.351Z,18.03
2018-12-16T08:45:58.545Z,18.52
2018-12-16T08:48:26.727Z,19.40
2018-12-16T08:50:54.855Z,18.23
2018-12-16T08:53:22.994Z,19.10
2018-12-16T08:55:51.856Z,18.07
2018-12-16T08:58:20.041Z,18.67
2018-12-16T09:00:48.234Z,19.57
2018-12-16T09:03:16.355Z,18.07
2018-12-16T09:05:44.543Z,18.62
2018-12-16T09:08:12.705Z,18.55
2018-12-16T09:10:40.832Z,18.63
2018-12-16T09:13:09.018Z,19.25
2018-12-16T09:15:37.255Z,19.37
2018-12-16T09:18:05.429Z,16.00
2018-12-16T09:20:34.375Z,27.05
2018-12-16T09:23:02.496Z,23.53
2018-12-16T09:25:30.666Z,24.73
2018-12-16T09:27:58.841Z,19.27
2018-12-16T09:30:27.194Z,17.80
2018-12-16T09:32:55.356Z,18.53
2018-12-16T09:35:23.502Z,18.97
2018-12-16T09:37:51.683Z,20.27
2018-12-16T09:40:19.906Z,20.60
2018-12-16T09:42:48.085Z,20.97
2018-12-16T09:45:16.271Z,22.57
2018-12-16T09:47:45.383Z,20.30
2018-12-16T09:50:13.619Z,20.00
2018-12-16T09:52:41.908Z,20.70
2018-12-16T09:55:10.064Z,21.75
2018-12-16T09:57:38.249Z,21.80
2018-12-16T10:02:55.431Z,20.20
2018-12-16T10:05:23.596Z,19.77
2018-12-16T10:07:51.755Z,19.95
2018-12-16T10:10:19.896Z,18.93
2018-12-16T10:12:48.184Z,19.12
2018-12-16T10:15:16.357Z,19.50
2018-12-16T10:17:45.423Z,18.87
2018-12-16T10:20:13.736Z,18.03
2018-12-16T10:22:41.914Z,18.63
2018-12-16T10:25:10.064Z,19.43
2018-12-16T10:27:38.239Z,19.47
2018-12-16T10:30:08.222Z,17.42
2018-12-16T10:32:36.412Z,17.37
2018-12-16T10:35:05.325Z,18.95
2018-12-16T10:37:33.490Z,23.70
2018-12-16T10:40:01.659Z,18.43
2018-12-16T10:42:29.830Z,18.23
2018-12-16T10:44:58.732Z,17.98
2018-12-16T10:47:26.886Z,18.50
2018-12-16T10:49:55.046Z,17.70
2018-12-16T10:52:23.369Z,18.90
2018-12-16T10:54:58.136Z,17.87
2018-12-16T10:57:21.771Z,17.83
2018-12-16T10:59:50.042Z,18.00
2018-12-16T11:02:18.245Z,18.13
2018-12-16T11:04:46.419Z,16.80
2018-12-16T11:07:14.613Z,19.20
2018-12-16T11:09:42.786Z,18.20
2018-12-16T11:12:12.228Z,19.00
2018-12-16T11:14:41.176Z,18.80
2018-12-16T11:17:09.321Z,19.47
2018-12-16T11:19:37.483Z,19.13
2018-12-16T11:22:05.700Z,19.27
2018-12-16T11:24:33.827Z,20.05
2018-12-16T11:27:02.017Z,20.23
2018-12-16T11:29:30.211Z,19.30
2018-12-16T11:31:58.365Z,18.80
2018-12-16T11:34:26.636Z,20.83
2018-12-16T11:36:54.898Z,20.03
2018-12-16T11:39:23.169Z,21.30
2018-12-16T11:41:51.483Z,19.03
2018-12-16T11:44:19.833Z,19.57
2018-12-16T11:46:48.716Z,20.07
2018-12-16T11:49:16.953Z,20.33
2018-12-16T11:51:45.526Z,19.83
2018-12-16T11:54:13.746Z,20.10
2018-12-16T11:56:41.887Z,20.23
2018-12-16T11:59:10.032Z,21.07
2018-12-16T12:01:38.220Z,20.40
2018-12-16T12:04:06.481Z,20.43
2018-12-16T12:06:34.797Z,22.57
2018-12-16T12:09:04.199Z,21.40
2018-12-16T12:11:32.601Z,20.50
2018-12-16T12:14:00.789Z,20.45
2018-12-16T12:16:29.024Z,21.73
2018-12-16T12:19:14.934Z,19.90
2018-12-16T12:21:50.122Z,21.50
2018-12-16T12:27:15.639Z,21.20
2018-12-16T12:29:43.845Z,22.63
2018-12-16T12:32:12.134Z,20.82
2018-12-16T12:34:40.358Z,21.12
2018-12-16T12:37:08.601Z,22.67
2018-12-16T12:39:36.735Z,21.97
2018-12-16T12:42:04.964Z,21.67
2018-12-16T12:44:33.436Z,21.90
2018-12-16T12:47:01.610Z,21.30
2018-12-16T12:49:33.824Z,21.77
2018-12-16T12:52:03.071Z,21.90
2018-12-16T12:54:31.234Z,22.77
2018-12-16T12:57:00.115Z,22.07
2018-12-16T12:59:28.600Z,23.33
2018-12-16T13:01:57.062Z,22.37
2018-12-16T13:04:25.703Z,23.53
2018-12-16T13:06:54.464Z,21.17
2018-12-16T13:09:23.286Z,22.43
2018-12-16T13:11:53.219Z,23.40
2018-12-16T13:14:21.825Z,21.90
2018-12-16T13:16:50.829Z,23.63
2018-12-16T13:19:21.499Z,22.13
2018-12-16T13:21:51.024Z,22.53
2018-12-16T13:24:20.573Z,22.33
2018-12-16T13:26:50.231Z,24.73
2018-12-16T13:29:20.252Z,22.70
2018-12-16T13:31:50.065Z,23.53
2018-12-16T13:34:20.140Z,23.33
2018-12-16T13:36:50.047Z,23.23
2018-12-16T13:39:19.798Z,23.23
2018-12-16T13:41:49.752Z,23.30
2018-12-16T13:44:19.700Z,23.33
2018-12-16T13:46:49.170Z,22.57
2018-12-16T13:49:18.682Z,24.27
2018-12-16T13:51:48.400Z,22.97
2018-12-16T13:54:18.161Z,23.40
2018-12-16T13:56:47.631Z,23.73
2018-12-16T13:59:17.401Z,23.02
2018-12-16T14:01:46.674Z,24.10
2018-12-16T14:04:15.671Z,24.52
2018-12-16T14:06:45.131Z,23.83
2018-12-16T14:09:15.532Z,22.23
2018-12-16T14:11:45.366Z,24.15
2018-12-16T14:14:14.355Z,23.33
2018-12-16T14:16:43.572Z,21.63
2018-12-16T14:19:12.880Z,22.43
2018-12-16T14:21:41.923Z,22.87
2018-12-16T14:24:10.622Z,22.33
2018-12-16T14:26:39.155Z,22.25
2018-12-16T14:29:07.634Z,22.13
2018-12-16T14:31:35.856Z,21.33
2018-12-16T14:34:04.109Z,22.30
2018-12-16T14:36:33.074Z,21.70
2018-12-16T14:39:01.620Z,21.67
2018-12-16T14:41:30.664Z,21.03
2018-12-16T14:44:01.344Z,22.60
2018-12-16T14:46:29.979Z,23.00
2018-12-16T14:48:59.660Z,23.77
2018-12-16T14:51:29.147Z,25.00
2018-12-16T14:53:58.172Z,23.40
2018-12-16T14:56:27.276Z,21.47
2018-12-16T14:58:56.056Z,23.57
2018-12-16T15:01:24.621Z,22.40
2018-12-16T15:03:53.785Z,22.83
2018-12-16T15:06:22.272Z,23.62
2018-12-16T15:08:50.911Z,23.23
2018-12-16T15:11:20.027Z,22.77
2018-12-16T15:13:48.561Z,21.23
2018-12-16T15:16:18.587Z,22.47
2018-12-16T15:18:48.239Z,23.73
2018-12-16T15:21:17.974Z,24.30
2018-12-16T15:23:48.518Z,23.70
2018-12-16T15:26:17.959Z,21.80
2018-12-16T15:28:47.340Z,23.33
2018-12-16T15:31:17.243Z,21.33
2018-12-16T15:33:48.145Z,26.77
2018-12-16T15:36:17.790Z,22.10
2018-12-16T15:38:48.285Z,20.92
2018-12-16T15:41:18.226Z,23.23
2018-12-16T15:43:48.022Z,23.23
2018-12-16T15:46:18.575Z,22.35
2018-12-16T15:48:51.496Z,22.45
2018-12-16T15:51:21.578Z,22.47
2018-12-16T15:53:51.162Z,19.50
2018-12-16T15:56:21.686Z,23.73
2018-12-16T15:58:52.639Z,23.83
2018-12-16T16:01:22.789Z,22.87
2018-12-16T16:03:53.547Z,22.70
2018-12-16T16:06:23.480Z,22.20
2018-12-16T16:08:53.523Z,22.62
2018-12-16T16:11:23.244Z,22.10
2018-12-16T16:13:53.129Z,22.77
2018-12-16T16:16:23.033Z,23.10
2018-12-16T16:18:53.158Z,23.13
2018-12-16T16:21:23.702Z,24.27
2018-12-16T16:23:53.613Z,25.00
2018-12-16T16:26:24.715Z,23.70
2018-12-16T16:28:55.124Z,22.37
2018-12-16T16:31:25.634Z,22.33
2018-12-16T16:33:56.384Z,24.13
2018-12-16T16:36:26.337Z,23.43
2018-12-16T16:38:56.196Z,24.18
2018-12-16T16:41:26.329Z,24.17
2018-12-16T16:43:58.521Z,23.07
2018-12-16T16:46:28.702Z,30.50
2018-12-16T16:48:58.935Z,24.60
2018-12-16T16:51:29.378Z,24.17
2018-12-16T16:53:59.770Z,26.17
2018-12-16T16:56:30.007Z,24.70
2018-12-16T16:59:00.495Z,23.67
2018-12-16T17:01:30.253Z,23.67
2018-12-16T17:04:00.684Z,23.20
2018-12-16T17:06:30.965Z,23.47
2018-12-16T17:09:01.525Z,21.33
2018-12-16T17:11:31.976Z,22.13
2018-12-16T17:14:02.440Z,21.80
2018-12-16T17:16:32.696Z,21.80
2018-12-16T17:19:03.420Z,21.50
2018-12-16T17:21:33.471Z,24.17
2018-12-16T17:24:03.957Z,21.97
2018-12-16T17:26:34.190Z,22.20
2018-12-16T17:29:11.127Z,21.90
2018-12-16T17:31:40.939Z,21.83
2018-12-16T17:34:10.835Z,21.80
2018-12-16T17:36:40.649Z,20.68
2018-12-16T17:39:10.805Z,21.90
2018-12-16T17:41:41.291Z,22.37
2018-12-16T17:44:10.720Z,21.87
2018-12-16T17:46:41.488Z,21.90
2018-12-16T17:49:12.657Z,21.37
2018-12-16T17:51:43.804Z,20.50
2018-12-16T17:54:14.591Z,21.60
2018-12-16T17:56:45.395Z,20.43
2018-12-16T17:59:17.991Z,21.07
2018-12-16T18:01:48.845Z,20.00
2018-12-16T18:04:18.757Z,19.95
2018-12-16T18:06:49.353Z,20.83
2018-12-16T18:09:23.776Z,20.27
2018-12-16T18:11:54.197Z,22.15
2018-12-16T18:14:24.688Z,20.10
2018-12-16T18:16:55.105Z,20.00
2018-12-16T18:19:25.527Z,20.57
2018-12-16T18:21:55.255Z,21.80
2018-12-16T18:24:25.364Z,20.73
2018-12-16T18:26:56.076Z,20.65
2018-12-16T18:29:27.322Z,23.20
2018-12-16T18:31:58.368Z,21.87
2018-12-16T18:34:28.947Z,21.82
2018-12-16T18:36:59.475Z,20.67
2018-12-16T18:39:30.009Z,21.87
2018-12-16T18:42:01.109Z,20.77
2018-12-16T18:44:31.821Z,21.23
2018-12-16T18:47:02.705Z,20.50
2018-12-16T18:49:32.818Z,20.97
2018-12-16T18:52:03.505Z,20.20
2018-12-16T18:54:33.951Z,19.20
2018-12-16T18:57:07.395Z,23.93
2018-12-16T18:59:37.895Z,19.50
2018-12-16T19:02:08.038Z,20.30
2018-12-16T19:04:38.231Z,20.63
2018-12-16T19:07:08.751Z,20.20
2018-12-16T19:09:39.640Z,19.67
2018-12-16T19:12:10.625Z,19.57
2018-12-16T19:14:41.515Z,20.47
2018-12-16T19:17:12.754Z,21.82
2018-12-16T19:19:42.811Z,20.85
2018-12-16T19:22:12.361Z,20.40
2018-12-16T19:24:42.675Z,19.27
2018-12-16T19:27:13.306Z,20.15
2018-12-16T19:29:43.551Z,21.37
2018-12-16T19:32:13.436Z,19.13
2018-12-16T19:34:44.239Z,18.53
2018-12-16T19:37:14.623Z,19.70
2018-12-16T19:39:45.022Z,21.33
2018-12-16T19:42:15.150Z,21.52
2018-12-16T19:44:45.670Z,20.97
2018-12-16T19:47:16.197Z,20.63
2018-12-16T19:49:46.046Z,21.40
2018-12-16T19:52:16.035Z,21.37
2018-12-16T19:54:46.756Z,22.13
2018-12-16T19:57:17.143Z,20.87
2018-12-16T19:59:47.605Z,21.93
2018-12-16T20:02:18.150Z,22.13
2018-12-16T20:04:51.905Z,21.70
2018-12-16T20:07:22.207Z,20.67
2018-12-16T20:10:03.692Z,22.53
2018-12-16T20:12:43.699Z,21.73
2018-12-16T20:15:36.159Z,22.50
2018-12-16T20:18:18.432Z,22.40
2018-12-16T20:20:58.108Z,21.93
2018-12-16T20:23:34.664Z,21.10
2018-12-16T20:28:51.508Z,22.10
2018-12-16T20:31:30.101Z,21.80
2018-12-16T20:34:15.576Z,19.83
2018-12-16T20:36:51.324Z,18.32
2018-12-16T20:39:37.709Z,20.57
2018-12-16T20:42:14.418Z,20.20
2018-12-16T20:44:48.698Z,20.67
2018-12-16T20:50:04.970Z,19.20
2018-12-16T20:52:41.833Z,20.20
2018-12-16T20:55:27.796Z,20.93
2018-12-16T21:00:49.500Z,24.80
2018-12-16T21:03:23.338Z,20.17
2018-12-16T21:05:58.875Z,20.43
2018-12-16T21:08:32.502Z,18.63
2018-12-16T21:11:08.452Z,18.93
2018-12-16T21:13:47.038Z,18.87
2018-12-16T21:16:24.629Z,19.07
2018-12-16T21:21:38.635Z,20.37
2018-12-16T21:26:48.403Z,19.37
2018-12-16T21:29:22.292Z,19.83
2018-12-16T21:31:56.254Z,20.63
2018-12-16T21:54:47.286Z,20.00
2018-12-16T22:00:03.139Z,20.57
2018-12-16T22:14:01.151Z,18.17
2018-12-16T22:16:29.586Z,18.63
2018-12-16T22:18:58.148Z,18.23
2018-12-16T22:21:26.411Z,18.13
2018-12-16T22:23:54.758Z,18.27
2018-12-16T22:26:23.035Z,17.17
2018-12-16T22:28:51.216Z,18.43
2018-12-16T22:31:19.427Z,18.43
2018-12-16T22:33:47.678Z,18.07
2018-12-16T22:36:16.775Z,17.53
2018-12-16T22:38:44.959Z,18.00
2018-12-16T22:41:13.303Z,16.13
2018-12-16T22:43:41.769Z,17.05
2018-12-16T22:46:11.082Z,17.40
2018-12-16T22:48:39.341Z,17.23
2018-12-16T22:51:07.642Z,17.07
2018-12-16T22:53:35.906Z,17.33
2018-12-16T22:56:04.167Z,17.33
2018-12-16T22:58:33.115Z,17.40
2018-12-16T23:01:06.887Z,16.37
2018-12-16T23:03:35.130Z,16.53
2018-12-16T23:06:03.318Z,16.13
2018-12-16T23:08:31.448Z,16.23
2018-12-16T23:10:59.642Z,15.73
2018-12-16T23:13:27.796Z,16.00
2018-12-16T23:15:55.976Z,16.47
2018-12-16T23:18:24.097Z,16.97
2018-12-16T23:20:52.273Z,16.80
2018-12-16T23:23:20.451Z,16.53
2018-12-16T23:25:48.639Z,17.02
2018-12-16T23:28:17.427Z,18.70
2018-12-16T23:30:45.638Z,17.73
2018-12-16T23:33:13.807Z,16.33
2018-12-16T23:35:41.949Z,17.87
2018-12-16T23:38:10.118Z,18.10
2018-12-16T23:40:39.003Z,17.13
2018-12-16T23:43:07.255Z,16.43
2018-12-16T23:45:35.407Z,17.97
2018-12-16T23:48:03.687Z,16.47
2018-12-16T23:50:31.840Z,15.63
2018-12-16T23:53:00.003Z,16.63
2018-12-16T23:55:28.192Z,15.80
2018-12-16T23:58:01.075Z,15.18
